createdAt,value
2023-04-26T00:01:05.751Z,7.92
2023-04-26T00:03:33.005Z,7.89
2023-04-26T00:06:03.922Z,7.92
2023-04-26T00:08:31.223Z,7.95
2023-04-26T00:10:59.560Z,7.99
2023-04-26T00:13:27.123Z,7.99
2023-04-26T00:15:54.525Z,7.99
2023-04-26T00:18:22.002Z,7.99
2023-04-26T00:20:49.124Z,7.96
2023-04-26T00:23:16.375Z,7.96
2023-04-26T00:25:43.950Z,7.90
2023-04-26T00:28:11.371Z,7.88
2023-04-26T00:30:41.736Z,7.90
2023-04-26T00:33:10.299Z,7.86
2023-04-26T00:35:38.557Z,7.82
2023-04-26T00:38:06.396Z,7.82
2023-04-26T00:40:35.520Z,7.80
2023-04-26T00:43:04.514Z,7.76
2023-04-26T00:45:31.978Z,7.75
2023-04-26T00:48:03.606Z,7.73
2023-04-26T00:50:31.677Z,7.75
2023-04-26T00:53:00.056Z,7.76
2023-04-26T00:55:27.674Z,7.73
2023-04-26T00:57:55.473Z,7.75
2023-04-26T01:00:23.116Z,7.76
2023-04-26T01:02:51.469Z,7.75
2023-04-26T01:05:19.538Z,7.74
2023-04-26T01:07:46.901Z,7.75
2023-04-26T01:10:14.019Z,7.77
2023-04-26T01:12:41.716Z,7.79
2023-04-26T01:15:10.951Z,7.80
2023-04-26T01:17:40.680Z,7.82
2023-04-26T01:20:13.106Z,7.89
2023-04-26T01:22:40.414Z,7.91
2023-04-26T01:25:09.576Z,7.92
2023-04-26T01:27:37.048Z,7.91
2023-04-26T01:30:04.396Z,7.96
2023-04-26T01:32:31.597Z,7.99
2023-04-26T01:35:00.630Z,8.00
2023-04-26T01:37:30.383Z,7.98
2023-04-26T01:39:59.734Z,8.01
2023-04-26T01:42:27.346Z,8.03
2023-04-26T01:44:54.641Z,8.06
2023-04-26T01:47:22.235Z,8.11
2023-04-26T01:49:49.407Z,8.19
2023-04-26T01:52:16.964Z,8.24
2023-04-26T01:54:46.465Z,8.31
2023-04-26T01:57:13.674Z,8.38
2023-04-26T01:59:40.937Z,8.47
2023-04-26T02:02:08.385Z,8.59
2023-04-26T02:04:39.064Z,8.70
2023-04-26T02:07:06.643Z,8.81
2023-04-26T02:09:34.469Z,8.93
2023-04-26T02:12:03.177Z,9.03
2023-04-26T02:14:30.694Z,9.14
2023-04-26T02:16:58.007Z,9.24
2023-04-26T02:19:25.575Z,9.31
2023-04-26T02:21:52.924Z,9.37
2023-04-26T02:24:20.151Z,9.43
2023-04-26T02:26:47.536Z,9.48
2023-04-26T02:29:15.291Z,9.52
2023-04-26T02:31:43.019Z,9.56
2023-04-26T02:34:10.724Z,9.58
2023-04-26T02:36:38.578Z,9.61
2023-04-26T02:39:06.344Z,9.64
2023-04-26T02:41:33.995Z,9.66
2023-04-26T02:44:01.821Z,9.67
2023-04-26T02:46:29.241Z,9.73
2023-04-26T02:48:56.784Z,9.77
2023-04-26T02:51:24.408Z,9.83
2023-04-26T02:53:51.744Z,9.87
2023-04-26T02:56:19.643Z,9.91
2023-04-26T02:58:47.411Z,9.95
2023-04-26T03:01:15.883Z,9.98
2023-04-26T03:03:43.689Z,10.02
2023-04-26T03:06:11.091Z,10.06
2023-04-26T03:08:56.835Z,10.09
2023-04-26T03:11:24.287Z,10.14
2023-04-26T03:13:51.640Z,10.18
2023-04-26T03:16:24.199Z,10.23
2023-04-26T03:18:51.912Z,10.29
2023-04-26T03:21:21.583Z,10.32
2023-04-26T03:23:50.227Z,10.39
2023-04-26T03:26:17.367Z,10.45
2023-04-26T03:28:44.900Z,10.51
2023-04-26T03:31:12.169Z,10.58
2023-04-26T03:33:40.080Z,10.65
2023-04-26T03:36:08.089Z,10.73
2023-04-26T03:38:36.425Z,10.80
2023-04-26T03:41:04.436Z,10.88
2023-04-26T03:43:32.245Z,10.96
2023-04-26T03:46:01.657Z,11.04
2023-04-26T03:48:28.698Z,11.12
2023-04-26T03:50:56.180Z,11.21
2023-04-26T03:53:23.622Z,11.26
2023-04-26T03:55:50.835Z,11.31
2023-04-26T03:58:18.219Z,11.36
2023-04-26T04:00:45.467Z,11.44
2023-04-26T04:03:13.130Z,11.50
2023-04-26T04:05:41.162Z,11.56
2023-04-26T04:08:08.688Z,11.59
2023-04-26T04:10:38.146Z,11.69
2023-04-26T04:13:05.307Z,11.81
2023-04-26T04:15:32.914Z,11.97
2023-04-26T04:18:00.390Z,12.11
2023-04-26T04:20:27.502Z,12.25
2023-04-26T04:22:58.773Z,12.40
2023-04-26T04:25:26.738Z,12.52
2023-04-26T04:27:55.868Z,12.63
2023-04-26T04:30:23.473Z,12.63
2023-04-26T04:32:51.201Z,12.56
2023-04-26T04:35:19.632Z,12.59
2023-04-26T04:37:47.971Z,12.51
2023-04-26T04:40:16.634Z,12.46
2023-04-26T04:42:46.652Z,12.35
2023-04-26T04:45:15.723Z,12.33
2023-04-26T04:47:46.676Z,12.33
2023-04-26T04:50:14.896Z,12.36
2023-04-26T04:52:43.785Z,12.35
2023-04-26T04:55:15.163Z,12.41
2023-04-26T04:57:43.364Z,12.42
2023-04-26T05:00:16.419Z,12.46
2023-04-26T05:03:05.483Z,12.58
2023-04-26T05:05:33.520Z,12.63
2023-04-26T05:08:03.738Z,12.70
2023-04-26T05:10:31.622Z,12.75
2023-04-26T05:12:59.384Z,12.83
2023-04-26T05:15:26.884Z,12.85
2023-04-26T05:17:56.455Z,12.97
2023-04-26T05:20:26.432Z,12.99
2023-04-26T05:22:53.945Z,13.08
2023-04-26T05:25:22.589Z,13.17
2023-04-26T05:27:54.865Z,13.17
2023-04-26T05:30:36.722Z,13.27
2023-04-26T05:33:26.999Z,13.39
2023-04-26T05:35:58.516Z,13.34
2023-04-26T05:38:26.742Z,13.38
2023-04-26T05:40:54.592Z,13.23
2023-04-26T05:43:22.708Z,13.22
2023-04-26T05:45:54.664Z,13.08
2023-04-26T05:48:24.244Z,13.08
2023-04-26T05:50:52.485Z,12.65
2023-04-26T05:53:20.779Z,12.92
2023-04-26T05:55:48.891Z,12.67
2023-04-26T05:58:16.404Z,12.65
2023-04-26T06:00:44.474Z,12.61
2023-04-26T06:03:13.473Z,12.65
2023-04-26T06:05:42.025Z,12.45
2023-04-26T06:08:10.573Z,12.11
2023-04-26T06:10:44.219Z,11.78
2023-04-26T06:13:11.876Z,11.58
2023-04-26T06:15:39.844Z,11.44
2023-04-26T06:18:08.172Z,11.14
2023-04-26T06:20:36.410Z,11.02
2023-04-26T06:23:06.562Z,11.08
2023-04-26T06:25:34.535Z,11.21
2023-04-26T06:28:02.239Z,11.44
2023-04-26T06:30:29.744Z,11.64
2023-04-26T06:33:00.219Z,11.78
2023-04-26T06:35:28.627Z,11.96
2023-04-26T06:37:58.032Z,12.13
2023-04-26T06:40:26.754Z,12.33
2023-04-26T06:42:55.496Z,12.41
2023-04-26T06:45:35.331Z,12.51
2023-04-26T06:48:04.859Z,12.51
2023-04-26T06:50:33.751Z,12.62
2023-04-26T06:53:01.512Z,12.50
2023-04-26T06:55:29.669Z,12.43
2023-04-26T06:57:57.252Z,12.52
2023-04-26T07:00:24.226Z,12.45
2023-04-26T07:02:52.017Z,12.37
2023-04-26T07:05:19.590Z,12.39
2023-04-26T07:07:47.200Z,12.61
2023-04-26T07:10:14.429Z,13.02
2023-04-26T07:12:59.133Z,13.71
2023-04-26T07:15:26.670Z,14.61
2023-04-26T07:17:54.198Z,15.55
2023-04-26T07:20:22.926Z,16.35
2023-04-26T07:22:51.322Z,17.18
2023-04-26T07:25:19.127Z,17.80
2023-04-26T07:27:46.555Z,18.30
2023-04-26T07:30:15.428Z,18.66
2023-04-26T07:32:42.630Z,18.87
2023-04-26T07:35:16.470Z,19.21
2023-04-26T07:37:45.368Z,19.22
2023-04-26T07:40:14.849Z,19.46
2023-04-26T07:42:42.393Z,19.43
2023-04-26T07:45:10.967Z,19.82
2023-04-26T07:47:38.344Z,19.74
2023-04-26T07:50:06.743Z,19.91
2023-04-26T07:52:34.724Z,19.79
2023-04-26T07:55:01.894Z,19.64
2023-04-26T07:57:28.850Z,19.67
2023-04-26T07:59:56.945Z,19.70
2023-04-26T08:02:36.858Z,19.70
2023-04-26T08:05:11.907Z,19.55
2023-04-26T08:07:39.407Z,19.70
2023-04-26T08:10:07.712Z,19.72
2023-04-26T08:12:36.162Z,19.16
2023-04-26T08:15:22.165Z,18.55
2023-04-26T08:17:53.200Z,18.52
2023-04-26T08:20:20.923Z,18.22
2023-04-26T08:22:48.635Z,17.77
2023-04-26T08:25:17.044Z,17.54
2023-04-26T08:27:45.247Z,18.11
2023-04-26T08:30:14.928Z,18.00
2023-04-26T08:32:41.915Z,17.63
2023-04-26T08:35:10.435Z,17.50
2023-04-26T08:37:38.562Z,17.62
2023-04-26T08:40:13.998Z,18.06
2023-04-26T08:42:44.268Z,17.99
2023-04-26T08:45:12.020Z,18.08
2023-04-26T08:47:44.941Z,18.07
2023-04-26T08:50:14.955Z,18.38
2023-04-26T08:52:43.906Z,18.01
2023-04-26T08:55:16.818Z,18.02
2023-04-26T08:57:47.848Z,17.96
2023-04-26T09:00:16.625Z,17.47
2023-04-26T09:02:50.029Z,17.38
2023-04-26T09:05:18.465Z,17.38
2023-04-26T09:07:47.190Z,16.78
2023-04-26T09:10:20.219Z,16.27
2023-04-26T09:12:47.869Z,16.14
2023-04-26T09:15:15.829Z,15.61
2023-04-26T09:17:43.620Z,15.30
2023-04-26T09:20:30.794Z,15.15
2023-04-26T09:23:06.086Z,14.77
2023-04-26T09:25:34.108Z,14.58
2023-04-26T09:28:03.945Z,14.58
2023-04-26T09:30:38.357Z,14.49
2023-04-26T09:33:07.003Z,14.34
2023-04-26T09:35:39.433Z,14.31
2023-04-26T09:38:13.199Z,14.22
2023-04-26T09:40:45.872Z,14.06
2023-04-26T09:43:16.333Z,13.80
2023-04-26T09:45:53.811Z,13.71
2023-04-26T09:48:23.157Z,13.46
2023-04-26T09:50:53.099Z,13.42
2023-04-26T09:53:34.371Z,13.50
2023-04-26T09:56:21.359Z,13.56
2023-04-26T09:58:52.607Z,13.39
2023-04-26T10:01:20.642Z,13.36
2023-04-26T10:03:47.917Z,13.43
2023-04-26T10:06:18.465Z,13.45
2023-04-26T10:08:46.133Z,13.55
2023-04-26T10:11:14.224Z,13.59
2023-04-26T10:13:42.348Z,13.57
2023-04-26T10:16:10.730Z,13.72
2023-04-26T10:18:41.792Z,13.81
2023-04-26T10:21:17.124Z,13.84
2023-04-26T10:23:45.234Z,13.82
2023-04-26T10:26:51.667Z,13.87
2023-04-26T10:29:19.811Z,13.60
2023-04-26T10:32:06.161Z,13.45
2023-04-26T10:34:36.936Z,13.19
2023-04-26T10:37:11.485Z,12.88
2023-04-26T10:39:44.103Z,12.66
2023-04-26T10:42:24.714Z,12.52
2023-04-26T10:45:22.498Z,12.39
2023-04-26T10:47:49.862Z,12.32
2023-04-26T10:50:17.100Z,12.35
2023-04-26T10:53:04.148Z,12.33
2023-04-26T10:55:44.028Z,12.44
2023-04-26T10:58:30.570Z,12.50
2023-04-26T11:01:13.764Z,12.63
2023-04-26T11:03:42.083Z,12.77
2023-04-26T11:06:14.021Z,12.85
2023-04-26T11:08:43.617Z,13.02
2023-04-26T11:11:13.204Z,13.22
2023-04-26T11:13:43.025Z,13.32
2023-04-26T11:16:14.861Z,13.43
2023-04-26T11:18:47.577Z,13.43
2023-04-26T11:21:17.603Z,13.56
2023-04-26T11:23:54.271Z,13.69
2023-04-26T11:26:22.103Z,13.91
2023-04-26T11:28:49.986Z,14.08
2023-04-26T11:31:19.437Z,14.02
2023-04-26T11:33:49.902Z,14.26
2023-04-26T11:36:19.922Z,14.35
2023-04-26T11:38:48.012Z,14.29
2023-04-26T11:41:15.526Z,14.17
2023-04-26T11:43:44.102Z,14.18
2023-04-26T11:46:11.856Z,14.00
2023-04-26T11:48:40.088Z,14.27
2023-04-26T11:51:09.410Z,14.37
2023-04-26T11:53:42.693Z,14.44
2023-04-26T11:56:20.780Z,14.57
2023-04-26T11:58:53.023Z,14.64
2023-04-26T12:01:26.320Z,14.64
2023-04-26T12:03:56.016Z,14.63
2023-04-26T12:06:42.936Z,14.91
2023-04-26T12:09:11.565Z,15.08
2023-04-26T12:11:41.713Z,15.26
2023-04-26T12:14:10.586Z,15.57
2023-04-26T12:16:38.467Z,15.88
2023-04-26T12:19:09.589Z,16.32
2023-04-26T12:21:43.927Z,16.65
2023-04-26T12:24:23.895Z,17.12
2023-04-26T12:26:50.973Z,17.52
2023-04-26T12:29:18.751Z,17.61
2023-04-26T12:31:47.233Z,17.70
2023-04-26T12:34:14.759Z,17.97
2023-04-26T12:36:45.008Z,18.12
2023-04-26T12:39:14.024Z,18.37
2023-04-26T12:41:45.334Z,18.43
2023-04-26T12:44:13.044Z,18.56
2023-04-26T12:46:40.715Z,18.66
2023-04-26T12:49:08.267Z,19.13
2023-04-26T12:51:35.628Z,19.17
2023-04-26T12:54:02.840Z,19.19
2023-04-26T12:56:30.613Z,19.28
2023-04-26T12:58:57.481Z,19.46
2023-04-26T13:01:24.632Z,19.55
2023-04-26T13:03:52.362Z,19.51
2023-04-26T13:06:21.554Z,19.34
2023-04-26T13:08:49.103Z,19.16
2023-04-26T13:11:16.970Z,19.21
2023-04-26T13:13:44.848Z,19.37
2023-04-26T13:16:13.349Z,19.00
2023-04-26T13:18:41.864Z,18.66
2023-04-26T13:21:09.629Z,18.56
2023-04-26T13:23:37.553Z,18.26
2023-04-26T13:26:05.339Z,18.07
2023-04-26T13:28:32.906Z,18.23
2023-04-26T13:31:00.580Z,18.54
2023-04-26T13:33:28.426Z,18.61
2023-04-26T13:35:56.346Z,18.56
2023-04-26T13:38:23.701Z,18.35
2023-04-26T13:40:51.645Z,18.16
2023-04-26T13:43:18.989Z,18.22
2023-04-26T13:45:46.354Z,18.16
2023-04-26T13:48:13.919Z,18.27
2023-04-26T13:50:42.878Z,18.45
2023-04-26T13:53:11.228Z,18.62
2023-04-26T13:55:38.464Z,18.55
2023-04-26T13:58:06.414Z,18.39
2023-04-26T14:00:34.691Z,18.19
2023-04-26T14:03:02.267Z,17.86
2023-04-26T14:05:29.747Z,17.52
2023-04-26T14:07:57.593Z,17.24
2023-04-26T14:10:24.889Z,17.02
2023-04-26T14:12:52.337Z,16.81
2023-04-26T14:15:19.651Z,16.67
2023-04-26T14:17:49.982Z,16.58
2023-04-26T14:20:18.013Z,16.52
2023-04-26T14:22:46.211Z,16.49
2023-04-26T14:25:13.985Z,16.42
2023-04-26T14:27:42.015Z,16.32
2023-04-26T14:30:09.573Z,16.15
2023-04-26T14:32:37.006Z,15.95
2023-04-26T14:35:05.954Z,15.73
2023-04-26T14:37:33.976Z,15.50
2023-04-26T14:40:01.886Z,15.25
2023-04-26T14:42:29.750Z,15.10
2023-04-26T14:45:00.303Z,15.00
2023-04-26T14:47:27.647Z,14.87
2023-04-26T14:49:56.070Z,14.83
2023-04-26T14:52:26.953Z,14.81
2023-04-26T14:54:53.904Z,14.84
2023-04-26T14:57:20.720Z,14.79
2023-04-26T14:59:48.548Z,14.71
2023-04-26T15:02:15.944Z,14.67
2023-04-26T15:04:44.090Z,14.61
2023-04-26T15:07:20.995Z,14.51
2023-04-26T15:09:56.006Z,14.43
2023-04-26T15:12:23.097Z,14.36
2023-04-26T15:14:50.163Z,14.23
2023-04-26T15:17:17.954Z,14.18
2023-04-26T15:19:45.420Z,14.15
2023-04-26T15:22:13.344Z,14.15
2023-04-26T15:24:41.722Z,14.14
2023-04-26T15:27:10.227Z,14.10
2023-04-26T15:29:37.768Z,14.15
2023-04-26T15:32:05.411Z,14.07
2023-04-26T15:34:45.775Z,14.06
2023-04-26T15:37:13.622Z,13.98
2023-04-26T15:39:41.102Z,13.99
2023-04-26T15:42:09.161Z,13.95
2023-04-26T15:44:37.730Z,13.98
2023-04-26T15:47:07.105Z,13.99
2023-04-26T15:49:34.554Z,14.01
2023-04-26T15:52:02.235Z,14.07
2023-04-26T15:54:30.219Z,14.07
2023-04-26T15:56:58.545Z,14.06
2023-04-26T15:59:27.027Z,14.10
2023-04-26T16:01:54.219Z,14.12
2023-04-26T16:04:21.752Z,14.11
2023-04-26T16:06:49.812Z,14.10
2023-04-26T16:09:25.414Z,14.09
2023-04-26T16:11:53.491Z,14.05
2023-04-26T16:14:21.027Z,13.98
2023-04-26T16:16:50.896Z,14.01
2023-04-26T16:19:18.938Z,13.98
2023-04-26T16:21:46.390Z,13.96
2023-04-26T16:24:13.419Z,13.93
2023-04-26T16:26:40.307Z,13.93
2023-04-26T16:29:08.589Z,13.91
2023-04-26T16:31:35.974Z,13.89
2023-04-26T16:34:03.571Z,13.85
2023-04-26T16:36:31.722Z,13.81
2023-04-26T16:38:59.250Z,13.74
2023-04-26T16:41:28.155Z,13.70
2023-04-26T16:43:56.188Z,13.65
2023-04-26T16:46:23.667Z,13.59
2023-04-26T16:48:51.905Z,13.52
2023-04-26T16:51:19.487Z,13.46
2023-04-26T16:53:59.128Z,13.36
2023-04-26T16:56:27.234Z,13.34
2023-04-26T16:58:54.512Z,13.33
2023-04-26T17:01:21.810Z,13.31
2023-04-26T17:03:49.334Z,13.34
2023-04-26T17:06:16.286Z,13.34
2023-04-26T17:08:43.870Z,13.40
2023-04-26T17:11:15.787Z,13.41
2023-04-26T17:13:43.978Z,13.42
2023-04-26T17:16:11.278Z,13.44
2023-04-26T17:18:38.754Z,13.44
2023-04-26T17:21:06.383Z,13.50
2023-04-26T17:23:34.910Z,13.48
2023-04-26T17:26:02.610Z,13.53
2023-04-26T17:28:29.689Z,13.52
2023-04-26T17:30:57.271Z,13.53
2023-04-26T17:33:25.589Z,13.53
2023-04-26T17:35:52.759Z,13.44
2023-04-26T17:38:20.799Z,13.36
2023-04-26T17:40:53.553Z,13.26
2023-04-26T17:43:21.402Z,13.19
2023-04-26T17:45:48.539Z,13.11
2023-04-26T17:48:16.246Z,13.08
2023-04-26T17:50:43.960Z,12.99
2023-04-26T17:53:11.910Z,12.88
2023-04-26T17:55:39.606Z,12.75
2023-04-26T17:58:06.720Z,12.69
2023-04-26T18:00:34.076Z,12.70
2023-04-26T18:03:03.360Z,12.70
2023-04-26T18:05:30.932Z,12.72
2023-04-26T18:07:59.645Z,12.74
2023-04-26T18:10:26.822Z,12.77
2023-04-26T18:12:54.397Z,12.78
2023-04-26T18:15:21.649Z,12.76
2023-04-26T18:17:49.649Z,12.74
2023-04-26T18:20:17.432Z,12.74
2023-04-26T18:22:45.182Z,12.75
2023-04-26T18:25:12.457Z,12.68
2023-04-26T18:27:39.955Z,12.62
2023-04-26T18:30:08.474Z,12.55
2023-04-26T18:32:36.698Z,12.46
2023-04-26T18:35:06.569Z,12.42
2023-04-26T18:37:33.988Z,12.36
2023-04-26T18:40:01.571Z,12.29
2023-04-26T18:42:28.752Z,12.19
2023-04-26T18:44:56.678Z,12.13
2023-04-26T18:47:24.532Z,12.09
2023-04-26T18:49:51.335Z,12.05
2023-04-26T18:52:19.298Z,12.05
2023-04-26T18:54:47.905Z,12.04
2023-04-26T18:57:18.522Z,12.06
2023-04-26T18:59:46.080Z,12.06
2023-04-26T19:02:13.813Z,12.07
2023-04-26T19:04:41.849Z,12.07
2023-04-26T19:07:09.442Z,11.98
2023-04-26T19:09:50.357Z,11.94
2023-04-26T19:12:18.389Z,11.89
2023-04-26T19:14:45.456Z,11.79
2023-04-26T19:17:12.262Z,11.67
2023-04-26T19:19:39.214Z,11.69
2023-04-26T19:22:06.517Z,11.53
2023-04-26T19:24:34.073Z,11.53
2023-04-26T19:27:01.436Z,11.44
2023-04-26T19:29:28.784Z,11.39
2023-04-26T19:31:56.202Z,11.36
2023-04-26T19:34:23.725Z,11.31
2023-04-26T19:36:50.568Z,11.21
2023-04-26T19:39:18.071Z,11.06
2023-04-26T19:41:45.616Z,10.99
2023-04-26T19:44:13.155Z,10.91
2023-04-26T19:46:41.556Z,10.84
2023-04-26T19:49:09.323Z,10.68
2023-04-26T19:51:36.439Z,10.55
2023-04-26T19:54:04.156Z,10.33
2023-04-26T19:56:31.747Z,10.33
2023-04-26T19:58:58.879Z,10.12
2023-04-26T20:01:26.415Z,10.05
2023-04-26T20:03:53.926Z,9.92
2023-04-26T20:06:21.273Z,9.87
2023-04-26T20:08:48.609Z,9.78
2023-04-26T20:11:17.293Z,9.68
2023-04-26T20:13:45.188Z,9.63
2023-04-26T20:16:13.073Z,9.59
2023-04-26T20:18:40.079Z,9.55
2023-04-26T20:21:07.408Z,9.46
2023-04-26T20:23:34.851Z,9.39
2023-04-26T20:26:02.958Z,9.29
2023-04-26T20:28:30.200Z,9.24
2023-04-26T20:30:57.465Z,9.17
2023-04-26T20:33:25.372Z,9.20
2023-04-26T20:35:53.400Z,9.17
2023-04-26T20:38:21.842Z,9.12
2023-04-26T20:40:50.331Z,9.00
2023-04-26T20:43:17.170Z,8.97
2023-04-26T20:45:44.139Z,8.90
2023-04-26T20:48:11.494Z,8.93
2023-04-26T20:50:38.632Z,8.81
2023-04-26T20:53:06.037Z,8.84
2023-04-26T20:56:29.851Z,8.85
2023-04-26T20:59:03.094Z,8.78
2023-04-26T21:01:30.907Z,8.69
2023-04-26T21:03:58.031Z,8.69
2023-04-26T21:06:25.771Z,8.61
2023-04-26T21:08:53.308Z,8.51
2023-04-26T21:11:20.705Z,8.49
2023-04-26T21:13:48.838Z,8.43
2023-04-26T21:16:16.220Z,8.32
2023-04-26T21:18:43.927Z,8.28
2023-04-26T21:21:11.310Z,8.25
2023-04-26T21:23:38.587Z,8.24
2023-04-26T21:26:06.126Z,8.15
2023-04-26T21:28:33.345Z,8.08
2023-04-26T21:31:07.867Z,8.02
2023-04-26T21:33:35.135Z,8.00
2023-04-26T21:36:01.875Z,7.91
2023-04-26T21:38:29.272Z,7.88
2023-04-26T21:40:56.062Z,7.87
2023-04-26T21:43:23.707Z,7.76
2023-04-26T21:45:52.553Z,7.75
2023-04-26T21:48:19.890Z,7.79
2023-04-26T21:50:50.078Z,7.78
2023-04-26T21:53:19.687Z,7.74
2023-04-26T21:55:54.238Z,7.67
2023-04-26T21:58:22.409Z,7.63
2023-04-26T22:00:50.225Z,7.65
2023-04-26T22:03:17.686Z,7.63
2023-04-26T22:05:45.202Z,7.63
2023-04-26T22:08:12.282Z,7.61
2023-04-26T22:10:39.412Z,7.62
2023-04-26T22:13:06.309Z,7.69
2023-04-26T22:15:58.663Z,7.65
2023-04-26T22:18:26.697Z,7.67
2023-04-26T22:20:54.216Z,7.69
2023-04-26T22:23:21.673Z,7.65
2023-04-26T22:25:49.018Z,7.72
2023-04-26T22:28:16.678Z,7.73
2023-04-26T22:30:43.661Z,7.75
2023-04-26T22:33:12.421Z,7.80
2023-04-26T22:35:39.902Z,7.77
2023-04-26T22:38:06.692Z,7.78
2023-04-26T22:40:34.000Z,7.84
2023-04-26T22:43:01.392Z,7.84
2023-04-26T22:45:28.696Z,7.87
2023-04-26T22:47:55.888Z,7.87
2023-04-26T22:50:23.198Z,7.88
2023-04-26T22:52:50.914Z,7.86
2023-04-26T22:55:18.169Z,7.84
2023-04-26T22:57:45.536Z,7.84
2023-04-26T23:00:14.260Z,7.87
2023-04-26T23:02:41.938Z,7.80
2023-04-26T23:05:10.482Z,7.79
2023-04-26T23:07:38.342Z,7.81
2023-04-26T23:10:07.020Z,7.83
2023-04-26T23:12:34.184Z,7.83
2023-04-26T23:15:02.132Z,7.80
2023-04-26T23:17:29.563Z,7.82
2023-04-26T23:19:56.763Z,7.83
2023-04-26T23:22:23.644Z,7.82
2023-04-26T23:24:51.683Z,7.84
2023-04-26T23:27:21.097Z,7.84
2023-04-26T23:29:50.125Z,7.84
2023-04-26T23:32:17.347Z,7.79
2023-04-26T23:34:44.548Z,7.86
2023-04-26T23:37:11.728Z,7.81
2023-04-26T23:39:38.941Z,7.83
2023-04-26T23:42:06.871Z,7.83
2023-04-26T23:44:34.255Z,7.80
2023-04-26T23:47:01.277Z,7.75
2023-04-26T23:49:28.713Z,7.79
2023-04-26T23:51:56.032Z,7.75
2023-04-26T23:54:23.224Z,7.72
2023-04-26T23:56:50.374Z,7.65
2023-04-26T23:59:17.470Z,7.66
